createdAt,value
2023-02-25T00:00:36.943Z,4.80
2023-02-25T00:03:04.905Z,4.70
2023-02-25T00:05:33.713Z,4.70
2023-02-25T00:08:01.351Z,4.60
2023-02-25T00:10:28.937Z,4.60
2023-02-25T00:13:08.752Z,4.60
2023-02-25T00:15:43.779Z,4.50
2023-02-25T00:18:11.477Z,4.60
2023-02-25T00:20:42.620Z,4.60
2023-02-25T00:23:10.681Z,4.60
2023-02-25T00:25:38.276Z,4.60
2023-02-25T00:28:06.604Z,4.70
2023-02-25T00:30:35.378Z,4.70
2023-02-25T00:33:03.135Z,4.70
2023-02-25T00:35:30.885Z,4.70
2023-02-25T00:38:13.863Z,4.70
2023-02-25T00:40:43.348Z,4.60
2023-02-25T00:43:10.891Z,4.50
2023-02-25T00:45:39.485Z,4.50
2023-02-25T00:48:07.324Z,4.40
2023-02-25T00:50:39.874Z,4.40
2023-02-25T00:53:07.473Z,4.30
2023-02-25T00:55:35.061Z,4.30
2023-02-25T00:58:03.239Z,4.30
2023-02-25T01:00:35.930Z,4.30
2023-02-25T01:03:17.517Z,4.60
2023-02-25T01:05:49.540Z,4.40
2023-02-25T01:08:18.531Z,4.40
2023-02-25T01:10:46.918Z,4.40
2023-02-25T01:13:15.260Z,4.50
2023-02-25T01:15:42.844Z,4.50
2023-02-25T01:18:10.707Z,4.60
2023-02-25T01:20:39.234Z,4.60
2023-02-25T01:23:07.268Z,4.70
2023-02-25T01:25:38.918Z,4.70
2023-02-25T01:28:08.850Z,4.70
2023-02-25T01:30:38.358Z,4.70
2023-02-25T01:33:11.502Z,4.70
2023-02-25T01:35:39.203Z,4.60
2023-02-25T01:38:08.560Z,4.60
2023-02-25T01:40:38.077Z,4.50
2023-02-25T01:43:05.998Z,4.40
2023-02-25T01:45:43.322Z,4.30
2023-02-25T01:48:18.856Z,4.30
2023-02-25T01:50:46.342Z,4.20
2023-02-25T01:53:14.607Z,4.20
2023-02-25T01:55:42.683Z,4.20
2023-02-25T01:58:11.816Z,4.10
2023-02-25T02:00:39.946Z,4.10
2023-02-25T02:03:15.947Z,4.10
2023-02-25T02:06:02.140Z,4.20
2023-02-25T02:08:30.825Z,4.20
2023-02-25T02:10:58.445Z,4.30
2023-02-25T02:13:26.021Z,4.30
2023-02-25T02:16:10.630Z,4.40
2023-02-25T02:18:39.653Z,4.50
2023-02-25T02:21:17.931Z,4.50
2023-02-25T02:23:51.688Z,4.60
2023-02-25T02:26:25.202Z,4.60
2023-02-25T02:29:11.777Z,4.70
2023-02-25T02:32:18.555Z,4.70
2023-02-25T02:34:57.533Z,4.70
2023-02-25T02:37:43.897Z,4.70
2023-02-25T02:40:30.596Z,4.80
2023-02-25T02:43:08.615Z,4.80
2023-02-25T02:46:11.680Z,4.80
2023-02-25T02:48:50.625Z,4.80
2023-02-25T02:51:35.868Z,4.70
2023-02-25T02:54:04.363Z,4.70
2023-02-25T02:56:33.600Z,4.70
2023-02-25T02:59:09.483Z,4.70
2023-02-25T03:02:00.402Z,4.70
2023-02-25T03:04:29.673Z,4.70
2023-02-25T03:07:00.121Z,4.70
2023-02-25T03:09:32.615Z,4.70
2023-02-25T03:12:00.135Z,4.70
2023-02-25T03:14:28.033Z,4.70
2023-02-25T03:17:21.949Z,4.70
2023-02-25T03:19:49.321Z,4.70
2023-02-25T03:22:27.898Z,4.70
2023-02-25T03:25:01.105Z,4.70
2023-02-25T03:27:30.169Z,4.70
2023-02-25T03:30:21.413Z,4.70
2023-02-25T03:32:55.146Z,4.70
2023-02-25T03:35:24.158Z,4.60
2023-02-25T03:37:54.270Z,4.60
2023-02-25T03:40:23.091Z,4.60
2023-02-25T03:42:56.728Z,4.60
2023-02-25T03:45:24.580Z,4.50
2023-02-25T03:47:53.996Z,4.50
2023-02-25T03:50:21.734Z,4.40
2023-02-25T03:52:54.444Z,4.40
2023-02-25T03:55:44.780Z,4.30
2023-02-25T03:58:12.491Z,4.20
2023-02-25T04:00:42.680Z,4.20
2023-02-25T04:03:10.269Z,4.10
2023-02-25T04:05:37.825Z,4.10
2023-02-25T04:08:15.236Z,4.20
2023-02-25T04:10:43.979Z,4.20
2023-02-25T04:13:12.577Z,4.20
2023-02-25T04:15:40.652Z,4.30
2023-02-25T04:18:08.388Z,4.30
2023-02-25T04:20:35.991Z,4.40
2023-02-25T04:23:03.446Z,4.40
2023-02-25T04:25:31.029Z,4.40
2023-02-25T04:27:58.407Z,4.50
2023-02-25T04:30:25.910Z,4.50
2023-02-25T04:32:53.343Z,4.50
2023-02-25T04:35:20.774Z,4.50
2023-02-25T04:37:48.118Z,4.60
2023-02-25T04:40:17.374Z,4.60
2023-02-25T04:42:45.005Z,4.60
2023-02-25T04:45:13.704Z,4.60
2023-02-25T04:47:41.482Z,4.60
2023-02-25T04:50:09.597Z,4.60
2023-02-25T04:52:37.401Z,4.60
2023-02-25T04:55:05.488Z,4.60
2023-02-25T04:57:32.985Z,4.60
2023-02-25T05:00:00.586Z,4.60
2023-02-25T05:02:28.061Z,4.60
2023-02-25T05:04:55.765Z,4.60
2023-02-25T05:07:23.174Z,4.60
2023-02-25T05:09:50.558Z,4.60
2023-02-25T05:12:17.882Z,4.60
2023-02-25T05:14:45.356Z,4.60
2023-02-25T05:17:13.337Z,4.60
2023-02-25T05:19:40.704Z,4.60
2023-02-25T05:22:09.044Z,4.60
2023-02-25T05:24:36.776Z,4.60
2023-02-25T05:27:09.137Z,4.60
2023-02-25T05:29:36.779Z,4.60
2023-02-25T05:32:04.556Z,4.60
2023-02-25T05:34:32.045Z,4.70
2023-02-25T05:36:59.646Z,4.60
2023-02-25T05:39:27.150Z,4.70
2023-02-25T05:41:54.895Z,4.70
2023-02-25T05:44:22.305Z,4.70
2023-02-25T05:46:49.686Z,4.70
2023-02-25T05:49:17.114Z,4.70
2023-02-25T05:51:44.492Z,4.70
2023-02-25T05:54:11.874Z,4.70
2023-02-25T05:56:39.275Z,4.70
2023-02-25T05:59:07.348Z,4.60
2023-02-25T06:01:34.760Z,4.70
2023-02-25T06:04:02.490Z,4.60
2023-02-25T06:06:31.604Z,4.60
2023-02-25T06:08:59.247Z,4.60
2023-02-25T06:11:27.743Z,4.60
2023-02-25T06:13:55.710Z,4.60
2023-02-25T06:16:25.892Z,4.60
2023-02-25T06:18:53.653Z,4.60
2023-02-25T06:21:21.092Z,4.60
2023-02-25T06:23:50.386Z,4.60
2023-02-25T06:26:21.487Z,4.60
2023-02-25T06:28:49.146Z,4.60
2023-02-25T06:31:17.430Z,4.60
2023-02-25T06:33:45.904Z,4.60
2023-02-25T06:36:13.652Z,4.60
2023-02-25T06:38:41.266Z,4.60
2023-02-25T06:41:09.861Z,4.60
2023-02-25T06:43:38.225Z,4.60
2023-02-25T06:46:06.776Z,4.50
2023-02-25T06:48:34.404Z,4.50
2023-02-25T06:51:03.029Z,4.50
2023-02-25T06:53:30.526Z,4.50
2023-02-25T06:55:58.599Z,4.50
2023-02-25T06:58:26.102Z,4.40
2023-02-25T07:00:53.683Z,4.40
2023-02-25T07:03:21.279Z,4.40
2023-02-25T07:05:48.854Z,4.50
2023-02-25T07:08:16.481Z,4.50
2023-02-25T07:10:44.672Z,4.50
2023-02-25T07:13:12.913Z,4.50
2023-02-25T07:15:40.412Z,4.50
2023-02-25T07:18:07.917Z,4.60
2023-02-25T07:20:35.582Z,4.50
2023-02-25T07:23:03.951Z,4.60
2023-02-25T07:25:31.664Z,4.60
2023-02-25T07:27:59.368Z,4.60
2023-02-25T07:30:27.921Z,4.60
2023-02-25T07:32:59.310Z,4.70
2023-02-25T07:35:27.403Z,4.70
2023-02-25T07:37:55.547Z,4.70
2023-02-25T07:40:23.275Z,4.80
2023-02-25T07:42:51.056Z,4.80
2023-02-25T07:45:22.942Z,4.80
2023-02-25T07:47:52.848Z,4.90
2023-02-25T07:50:20.264Z,4.90
2023-02-25T07:52:47.689Z,4.90
2023-02-25T07:55:15.147Z,5.00
2023-02-25T07:57:42.548Z,5.00
2023-02-25T08:00:10.445Z,5.00
2023-02-25T08:02:40.535Z,5.00
2023-02-25T08:05:08.298Z,5.00
2023-02-25T08:07:35.741Z,5.10
2023-02-25T08:10:03.428Z,5.10
2023-02-25T08:12:31.136Z,5.10
2023-02-25T08:15:01.978Z,5.20
2023-02-25T08:17:32.633Z,5.20
2023-02-25T08:20:00.244Z,5.30
2023-02-25T08:22:29.641Z,5.40
2023-02-25T08:24:57.477Z,5.40
2023-02-25T08:27:24.872Z,5.50
2023-02-25T08:29:52.466Z,5.60
2023-02-25T08:32:20.388Z,5.70
2023-02-25T08:34:50.933Z,5.80
2023-02-25T08:37:18.447Z,5.80
2023-02-25T08:39:48.154Z,5.90
2023-02-25T08:42:18.985Z,5.90
2023-02-25T08:44:46.441Z,6.00
2023-02-25T08:47:14.149Z,6.00
2023-02-25T08:49:41.762Z,6.00
2023-02-25T08:52:12.038Z,6.00
2023-02-25T08:54:40.019Z,6.10
2023-02-25T08:57:07.472Z,6.20
2023-02-25T08:59:41.519Z,6.30
2023-02-25T09:02:15.180Z,6.40
2023-02-25T09:04:42.962Z,6.50
2023-02-25T09:07:15.320Z,6.60
2023-02-25T09:09:44.553Z,6.70
2023-02-25T09:12:13.444Z,6.80
2023-02-25T09:14:48.441Z,6.90
2023-02-25T09:17:25.050Z,6.90
2023-02-25T09:19:53.095Z,6.90
2023-02-25T09:22:20.692Z,7.00
2023-02-25T09:24:48.439Z,7.00
2023-02-25T09:27:15.908Z,7.00
2023-02-25T09:29:43.661Z,7.00
2023-02-25T09:32:17.141Z,7.10
2023-02-25T09:34:44.619Z,7.10
2023-02-25T09:37:13.624Z,7.10
2023-02-25T09:39:43.221Z,7.20
2023-02-25T09:42:13.996Z,7.30
2023-02-25T09:44:57.174Z,7.40
2023-02-25T09:47:27.675Z,7.40
2023-02-25T09:50:01.533Z,7.60
2023-02-25T09:52:29.105Z,7.80
2023-02-25T09:55:00.531Z,8.00
2023-02-25T09:57:29.717Z,8.30
2023-02-25T09:59:57.324Z,8.70
2023-02-25T10:02:33.208Z,9.10
2023-02-25T10:05:15.279Z,9.40
2023-02-25T10:08:02.926Z,9.90
2023-02-25T10:10:36.658Z,10.00
2023-02-25T10:13:36.393Z,10.20
2023-02-25T10:16:30.178Z,10.40
2023-02-25T10:19:01.646Z,10.50
2023-02-25T10:21:40.027Z,10.60
2023-02-25T10:24:07.447Z,10.70
2023-02-25T10:26:36.999Z,10.40
2023-02-25T10:29:05.873Z,10.30
2023-02-25T10:31:33.481Z,10.00
2023-02-25T10:34:05.541Z,9.80
2023-02-25T10:36:39.629Z,9.60
2023-02-25T10:39:09.910Z,9.30
2023-02-25T10:41:37.584Z,9.10
2023-02-25T10:44:04.994Z,9.10
2023-02-25T10:46:51.154Z,9.00
2023-02-25T10:49:23.247Z,9.00
2023-02-25T10:52:05.330Z,9.10
2023-02-25T10:54:45.342Z,9.30
2023-02-25T10:57:15.085Z,9.70
2023-02-25T10:59:43.557Z,10.10
2023-02-25T11:02:25.940Z,10.30
2023-02-25T11:04:54.787Z,10.30
2023-02-25T11:07:31.554Z,10.40
2023-02-25T11:10:09.444Z,10.40
2023-02-25T11:12:41.276Z,10.50
2023-02-25T11:15:45.345Z,10.60
2023-02-25T11:18:29.757Z,10.80
2023-02-25T11:20:59.516Z,11.10
2023-02-25T11:23:38.298Z,11.40
2023-02-25T11:26:07.099Z,12.00
2023-02-25T11:28:40.390Z,12.70
2023-02-25T11:31:10.949Z,13.10
2023-02-25T11:33:40.665Z,13.50
2023-02-25T11:36:08.758Z,13.50
2023-02-25T11:38:43.125Z,13.30
2023-02-25T11:41:32.440Z,13.10
2023-02-25T11:44:11.621Z,13.40
2023-02-25T11:46:39.429Z,13.90
2023-02-25T11:49:10.605Z,14.10
2023-02-25T11:52:04.334Z,14.50
2023-02-25T11:54:31.945Z,15.00
2023-02-25T11:57:13.151Z,15.50
2023-02-25T11:59:52.967Z,15.50
2023-02-25T12:02:29.079Z,15.00
2023-02-25T12:05:03.444Z,14.20
2023-02-25T12:07:55.474Z,13.50
2023-02-25T12:10:57.496Z,12.80
2023-02-25T12:13:48.603Z,12.20
2023-02-25T12:16:31.692Z,11.70
2023-02-25T12:19:20.379Z,11.20
2023-02-25T12:22:12.825Z,10.70
2023-02-25T12:24:43.618Z,10.40
2023-02-25T12:27:30.173Z,10.00
2023-02-25T12:30:05.663Z,9.80
2023-02-25T12:32:42.314Z,9.50
2023-02-25T12:35:19.936Z,9.30
2023-02-25T12:38:06.291Z,8.90
2023-02-25T12:40:48.457Z,8.60
2023-02-25T12:43:42.120Z,8.20
2023-02-25T12:46:22.447Z,8.00
2023-02-25T12:49:19.439Z,7.90
2023-02-25T12:52:05.467Z,7.80
2023-02-25T12:54:48.187Z,7.80
2023-02-25T12:57:19.152Z,7.90
2023-02-25T12:59:52.549Z,8.00
2023-02-25T13:02:30.165Z,8.10
2023-02-25T13:05:04.887Z,8.20
2023-02-25T13:07:45.994Z,8.50
2023-02-25T13:10:29.344Z,8.70
2023-02-25T13:13:03.027Z,8.70
2023-02-25T13:15:36.593Z,8.70
2023-02-25T13:18:19.725Z,8.60
2023-02-25T13:20:58.565Z,8.50
2023-02-25T13:23:32.953Z,8.40
2023-02-25T13:26:20.772Z,8.30
2023-02-25T13:29:11.202Z,8.30
2023-02-25T13:31:42.287Z,8.50
2023-02-25T13:34:09.726Z,8.60
2023-02-25T13:36:37.100Z,8.70
2023-02-25T13:39:16.690Z,8.80
2023-02-25T13:42:04.416Z,8.90
2023-02-25T13:44:34.850Z,9.00
2023-02-25T13:47:21.282Z,9.20
2023-02-25T13:49:57.717Z,9.30
2023-02-25T13:52:27.916Z,9.40
2023-02-25T13:55:08.326Z,9.40
2023-02-25T13:57:44.694Z,9.30
2023-02-25T14:00:25.454Z,9.10
2023-02-25T14:03:12.079Z,9.00
2023-02-25T14:05:54.715Z,8.90
2023-02-25T14:08:22.102Z,8.80
2023-02-25T14:11:01.807Z,8.70
2023-02-25T14:13:47.990Z,8.60
2023-02-25T14:16:34.283Z,8.60
2023-02-25T14:19:01.669Z,8.70
2023-02-25T14:21:35.945Z,8.90
2023-02-25T14:24:09.547Z,9.10
2023-02-25T14:26:36.931Z,9.20
2023-02-25T14:29:12.620Z,9.20
2023-02-25T14:31:52.527Z,9.30
2023-02-25T14:34:20.005Z,9.30
2023-02-25T14:36:50.276Z,9.20
2023-02-25T14:39:21.758Z,9.20
2023-02-25T14:42:04.692Z,9.10
2023-02-25T14:44:35.881Z,9.00
2023-02-25T14:47:09.713Z,8.90
2023-02-25T14:49:47.467Z,9.00
2023-02-25T14:52:41.381Z,9.00
2023-02-25T14:55:18.170Z,9.10
2023-02-25T14:57:58.329Z,9.20
2023-02-25T15:00:28.953Z,9.20
2023-02-25T15:02:59.317Z,9.20
2023-02-25T15:05:39.188Z,9.20
2023-02-25T15:08:18.894Z,9.20
2023-02-25T15:11:05.325Z,9.20
2023-02-25T15:13:41.930Z,9.20
2023-02-25T15:16:18.791Z,9.20
2023-02-25T15:18:49.611Z,9.20
2023-02-25T15:21:29.268Z,9.10
2023-02-25T15:23:57.850Z,9.00
2023-02-25T15:26:27.249Z,9.00
2023-02-25T15:28:55.513Z,8.90
2023-02-25T15:31:28.525Z,8.90
2023-02-25T15:34:22.977Z,8.80
2023-02-25T15:37:10.311Z,8.80
2023-02-25T15:39:41.340Z,8.80
2023-02-25T15:42:11.068Z,8.80
2023-02-25T15:44:40.375Z,8.70
2023-02-25T15:47:11.414Z,8.70
2023-02-25T15:49:44.602Z,8.70
2023-02-25T15:52:12.693Z,8.60
2023-02-25T15:54:40.332Z,8.50
2023-02-25T15:57:11.192Z,8.30
2023-02-25T16:00:00.755Z,8.10
2023-02-25T16:02:33.352Z,8.00
2023-02-25T16:05:44.927Z,7.90
2023-02-25T16:08:36.553Z,7.80
2023-02-25T16:11:37.837Z,7.70
2023-02-25T16:14:26.182Z,7.70
2023-02-25T16:17:07.249Z,7.70
2023-02-25T16:19:40.030Z,7.70
2023-02-25T16:22:13.018Z,7.70
2023-02-25T16:24:48.953Z,7.70
2023-02-25T16:27:26.040Z,7.80
2023-02-25T16:30:23.213Z,7.90
2023-02-25T16:33:09.166Z,8.00
2023-02-25T16:35:42.156Z,8.10
2023-02-25T16:38:10.668Z,8.10
2023-02-25T16:40:39.184Z,8.00
2023-02-25T16:43:16.101Z,8.00
2023-02-25T16:45:56.075Z,8.00
2023-02-25T16:48:32.653Z,7.90
2023-02-25T16:51:11.583Z,7.80
2023-02-25T16:53:48.112Z,7.70
2023-02-25T16:56:22.225Z,7.70
2023-02-25T16:59:10.486Z,7.60
2023-02-25T17:01:47.349Z,7.50
2023-02-25T17:04:17.186Z,7.40
2023-02-25T17:06:44.960Z,7.30
2023-02-25T17:09:23.045Z,7.30
2023-02-25T17:11:53.850Z,7.20
2023-02-25T17:14:22.018Z,7.10
2023-02-25T17:16:49.784Z,7.10
2023-02-25T17:19:17.954Z,7.10
2023-02-25T17:21:50.665Z,7.10
2023-02-25T17:24:20.679Z,7.20
2023-02-25T17:26:49.232Z,7.20
2023-02-25T17:29:17.938Z,7.20
2023-02-25T17:31:47.699Z,7.20
2023-02-25T17:34:23.072Z,7.10
2023-02-25T17:36:50.786Z,7.10
2023-02-25T17:39:20.167Z,7.00
2023-02-25T17:41:48.350Z,7.00
2023-02-25T17:44:34.820Z,6.90
2023-02-25T17:47:03.556Z,6.80
2023-02-25T17:49:32.737Z,6.70
2023-02-25T17:52:01.671Z,6.60
2023-02-25T17:54:31.499Z,6.60
2023-02-25T17:57:00.365Z,6.50
2023-02-25T17:59:28.196Z,6.40
2023-02-25T18:01:57.465Z,6.40
2023-02-25T18:04:25.229Z,6.30
2023-02-25T18:06:56.464Z,6.40
2023-02-25T18:09:45.714Z,6.30
2023-02-25T18:12:21.362Z,6.40
2023-02-25T18:14:56.314Z,6.40
2023-02-25T18:17:28.588Z,6.40
2023-02-25T18:19:57.700Z,6.40
2023-02-25T18:22:27.981Z,6.40
2023-02-25T18:24:56.507Z,6.40
2023-02-25T18:27:30.872Z,6.50
2023-02-25T18:30:19.013Z,6.50
2023-02-25T18:32:50.232Z,6.50
2023-02-25T18:35:18.101Z,6.50
2023-02-25T18:37:46.556Z,6.50
2023-02-25T18:40:16.022Z,6.40
2023-02-25T18:42:45.579Z,6.40
2023-02-25T18:45:14.155Z,6.30
2023-02-25T18:47:41.725Z,6.20
2023-02-25T18:50:10.045Z,6.10
2023-02-25T18:52:38.265Z,6.00
2023-02-25T18:55:07.108Z,5.90
2023-02-25T18:57:35.442Z,5.90
2023-02-25T19:00:04.202Z,5.80
2023-02-25T19:02:33.033Z,5.80
2023-02-25T19:05:01.445Z,5.70
2023-02-25T19:07:33.589Z,5.70
2023-02-25T19:10:01.976Z,5.60
2023-02-25T19:12:31.488Z,5.60
2023-02-25T19:15:00.215Z,5.50
2023-02-25T19:17:28.635Z,5.50
2023-02-25T19:19:56.736Z,5.50
2023-02-25T19:22:27.457Z,5.40
2023-02-25T19:24:54.966Z,5.40
2023-02-25T19:27:24.819Z,5.40
2023-02-25T19:29:56.756Z,5.30
2023-02-25T19:32:25.733Z,5.30
2023-02-25T19:34:53.256Z,5.20
2023-02-25T19:37:20.927Z,5.20
2023-02-25T19:39:48.544Z,5.20
2023-02-25T19:42:16.301Z,5.10
2023-02-25T19:44:43.840Z,5.10
2023-02-25T19:47:11.456Z,5.10
2023-02-25T19:49:39.023Z,5.00
2023-02-25T19:52:06.658Z,5.00
2023-02-25T19:54:34.307Z,4.90
2023-02-25T19:57:02.109Z,4.90
2023-02-25T19:59:33.462Z,4.90
2023-02-25T20:02:01.464Z,4.80
2023-02-25T20:04:31.868Z,4.80
2023-02-25T20:06:59.440Z,4.80
2023-02-25T20:09:26.964Z,4.80
2023-02-25T20:11:54.727Z,4.70
2023-02-25T20:14:28.068Z,4.70
2023-02-25T20:16:57.145Z,4.70
2023-02-25T20:19:25.098Z,4.60
2023-02-25T20:21:53.678Z,4.60
2023-02-25T20:24:21.162Z,4.60
2023-02-25T20:26:49.014Z,4.50
2023-02-25T20:29:16.540Z,4.50
2023-02-25T20:31:44.198Z,4.50
2023-02-25T20:34:18.020Z,4.40
2023-02-25T20:36:52.121Z,4.40
2023-02-25T20:39:22.850Z,4.40
2023-02-25T20:41:50.454Z,4.40
2023-02-25T20:44:18.133Z,4.30
2023-02-25T20:46:46.301Z,4.30
2023-02-25T20:49:14.782Z,4.30
2023-02-25T20:51:44.898Z,4.30
2023-02-25T20:54:13.154Z,4.20
2023-02-25T20:56:41.468Z,4.20
2023-02-25T20:59:10.913Z,4.30
2023-02-25T21:01:38.908Z,4.20
2023-02-25T21:04:06.989Z,4.20
2023-02-25T21:06:34.819Z,4.20
2023-02-25T21:09:03.504Z,4.20
2023-02-25T21:11:31.194Z,4.10
2023-02-25T21:14:01.848Z,4.10
2023-02-25T21:16:32.376Z,4.10
2023-02-25T21:19:01.289Z,4.10
2023-02-25T21:21:31.726Z,4.00
2023-02-25T21:23:59.388Z,4.00
2023-02-25T21:26:27.331Z,4.00
2023-02-25T21:28:55.141Z,3.90
2023-02-25T21:31:22.998Z,3.90
2023-02-25T21:33:51.505Z,3.90
2023-02-25T21:36:19.224Z,3.90
2023-02-25T21:38:47.027Z,3.80
2023-02-25T21:41:16.067Z,3.80
2023-02-25T21:43:46.794Z,3.80
2023-02-25T21:46:19.054Z,3.80
2023-02-25T21:48:50.881Z,3.80
2023-02-25T21:51:20.378Z,3.80
2023-02-25T21:53:48.413Z,3.70
2023-02-25T21:56:17.138Z,3.70
2023-02-25T21:58:49.034Z,3.70
2023-02-25T22:01:22.173Z,3.70
2023-02-25T22:03:49.883Z,3.70
2023-02-25T22:06:17.825Z,3.70
2023-02-25T22:08:46.704Z,3.60
2023-02-25T22:11:15.394Z,3.60
2023-02-25T22:13:43.273Z,3.60
2023-02-25T22:16:11.304Z,3.60
2023-02-25T22:18:39.213Z,3.70
2023-02-25T22:21:11.855Z,3.70
2023-02-25T22:23:40.415Z,3.70
2023-02-25T22:26:12.222Z,3.70
2023-02-25T22:28:40.116Z,3.70
2023-02-25T22:31:12.173Z,3.70
2023-02-25T22:33:39.935Z,3.70
2023-02-25T22:36:07.996Z,3.70
2023-02-25T22:38:36.875Z,3.70
2023-02-25T22:41:05.367Z,3.70
2023-02-25T22:43:33.608Z,3.80
2023-02-25T22:46:11.756Z,3.80
2023-02-25T22:48:40.112Z,3.90
2023-02-25T22:51:09.688Z,3.90
2023-02-25T22:53:37.810Z,3.90
2023-02-25T22:56:07.004Z,3.90
2023-02-25T22:58:35.130Z,3.90
2023-02-25T23:01:02.977Z,4.00
2023-02-25T23:03:30.711Z,4.00
2023-02-25T23:05:58.314Z,4.10
2023-02-25T23:08:25.862Z,4.10
2023-02-25T23:10:53.916Z,4.10
2023-02-25T23:13:21.576Z,4.10
2023-02-25T23:15:49.933Z,4.00
2023-02-25T23:18:19.152Z,4.00
2023-02-25T23:20:48.849Z,4.00
2023-02-25T23:23:17.756Z,4.00
2023-02-25T23:25:50.640Z,3.90
2023-02-25T23:28:18.477Z,3.90
2023-02-25T23:30:46.190Z,3.80
2023-02-25T23:33:13.700Z,3.80
2023-02-25T23:35:44.842Z,3.80
2023-02-25T23:38:12.331Z,3.70
2023-02-25T23:40:40.284Z,3.70
2023-02-25T23:43:07.888Z,3.70
2023-02-25T23:45:35.683Z,3.60
2023-02-25T23:48:05.613Z,3.60
2023-02-25T23:50:33.062Z,3.60
2023-02-25T23:53:00.782Z,3.60
2023-02-25T23:55:29.258Z,3.60
2023-02-25T23:57:57.000Z,3.60
